Time;durP1;ratioP1;P1;durP2;ratioP2;P2;SDS_P1;SDS_P2;PMS_P1;PMS_P2;Temp;Humidity;BMP_temperature;BMP_pressure;BME280_temperature;BME280_humidity;BME280_pressure;Samples;Min_cycle;Max_cycle;Signal;HPM_P1;HPM_P2
2023/03/02 00:01:32;;;;;;;8.68;7.85;;;;;;;;;;5036994;28;20308;-65
2023/03/02 00:04:01;;;;;;;8.50;7.70;;;;;;;;;;5037060;28;20205;-66
2023/03/02 00:06:29;;;;;;;8.73;7.93;;;;;;;;;;5025061;28;20586;-66
2023/03/02 00:08:59;;;;;;;8.38;7.68;;;;;;;;;;5027132;28;20294;-65
2023/03/02 00:11:26;;;;;;;8.43;7.63;;;;;;;;;;5028211;28;20198;-65
2023/03/02 00:13:54;;;;;;;8.60;7.90;;;;;;;;;;5030868;28;20535;-65
2023/03/02 00:16:21;;;;;;;8.48;7.75;;;;;;;;;;5030979;28;20297;-66
2023/03/02 00:18:50;;;;;;;8.30;7.60;;;;;;;;;;5041024;28;20216;-65
2023/03/02 00:21:18;;;;;;;8.85;8.05;;;;;;;;;;5025104;28;20693;-65
2023/03/02 00:23:45;;;;;;;8.27;7.57;;;;;;;;;;5021247;28;20249;-65
2023/03/02 00:26:13;;;;;;;8.63;7.82;;;;;;;;;;5035226;28;20313;-65
2023/03/02 00:28:40;;;;;;;8.60;7.90;;;;;;;;;;5040747;28;20545;-65
2023/03/02 00:31:07;;;;;;;9.75;8.85;;;;;;;;;;5026528;28;20199;-66
2023/03/02 00:33:35;;;;;;;8.85;8.05;;;;;;;;;;5020932;28;20212;-65
2023/03/02 00:36:04;;;;;;;9.00;8.20;;;;;;;;;;5034314;28;20216;-65
2023/03/02 00:38:31;;;;;;;9.10;8.30;;;;;;;;;;5023267;28;20202;-65
2023/03/02 00:40:59;;;;;;;8.70;7.90;;;;;;;;;;5038146;28;20202;-66
2023/03/02 00:43:27;;;;;;;7.93;7.22;;;;;;;;;;5035413;28;20210;-66
2023/03/02 00:45:55;;;;;;;8.60;7.90;;;;;;;;;;5021160;28;20195;-65
2023/03/02 00:48:23;;;;;;;9.20;8.30;;;;;;;;;;5032792;28;20300;-65
2023/03/02 00:50:50;;;;;;;8.15;7.47;;;;;;;;;;5039852;28;20251;-65
2023/03/02 00:53:19;;;;;;;8.20;7.50;;;;;;;;;;5040583;28;20288;-65
2023/03/02 00:55:54;;;;;;;8.57;7.88;;;;;;;;;;5040122;28;20220;-65
2023/03/02 00:58:21;;;;;;;8.07;7.38;;;;;;;;;;5040177;28;20205;-65
2023/03/02 01:00:49;;;;;;;9.00;8.20;;;;;;;;;;5039819;28;20248;-65
2023/03/02 01:03:16;;;;;;;9.20;8.32;;;;;;;;;;5028265;28;20672;-65
2023/03/02 01:05:43;;;;;;;7.72;7.03;;;;;;;;;;5021420;28;20209;-65
2023/03/02 01:08:11;;;;;;;9.35;8.48;;;;;;;;;;5019725;28;20301;-65
2023/03/02 01:10:40;;;;;;;8.60;7.80;;;;;;;;;;5022004;28;20586;-65
2023/03/02 01:13:07;;;;;;;8.98;8.18;;;;;;;;;;5039928;28;20245;-65
2023/03/02 01:15:35;;;;;;;8.48;7.68;;;;;;;;;;5037660;28;20657;-65
2023/03/02 01:18:02;;;;;;;9.40;8.50;;;;;;;;;;5022556;28;20292;-65
2023/03/02 01:20:30;;;;;;;8.48;7.78;;;;;;;;;;5020458;28;20213;-66
2023/03/02 01:22:57;;;;;;;8.90;8.10;;;;;;;;;;5035260;28;20254;-65
2023/03/02 01:25:25;;;;;;;9.00;8.20;;;;;;;;;;5027700;28;20313;-66
2023/03/02 01:27:54;;;;;;;9.63;8.73;;;;;;;;;;5040081;28;20205;-65
2023/03/02 01:30:21;;;;;;;8.52;7.82;;;;;;;;;;5039554;28;20206;-65
2023/03/02 01:32:49;;;;;;;8.65;7.85;;;;;;;;;;5039358;28;20296;-66
2023/03/02 01:35:16;;;;;;;8.52;7.75;;;;;;;;;;5035772;28;20198;-66
2023/03/02 01:37:43;;;;;;;8.55;7.85;;;;;;;;;;5020421;28;20213;-66
2023/03/02 01:40:12;;;;;;;9.00;8.20;;;;;;;;;;5029586;28;20692;-65
2023/03/02 01:42:40;;;;;;;8.80;8.00;;;;;;;;;;5039039;28;20308;-66
2023/03/02 01:45:22;;;;;;;8.90;8.02;;;;;;;;;;5039577;28;20231;-66
2023/03/02 01:47:51;;;;;;;9.15;8.35;;;;;;;;;;5038428;28;20496;-66
2023/03/02 01:50:21;;;;;;;8.95;8.15;;;;;;;;;;5039545;28;20249;-65
2023/03/02 01:52:49;;;;;;;9.00;8.20;;;;;;;;;;5039048;28;20201;-66
2023/03/02 01:55:19;;;;;;;8.93;8.13;;;;;;;;;;5038907;28;20216;-65
2023/03/02 01:57:48;;;;;;;8.85;8.05;;;;;;;;;;5038828;28;20201;-65
2023/03/02 02:00:18;;;;;;;8.98;8.18;;;;;;;;;;5038913;28;20197;-65
2023/03/02 02:02:46;;;;;;;8.73;7.95;;;;;;;;;;5039016;28;20534;-65
2023/03/02 02:05:18;;;;;;;8.82;8.02;;;;;;;;;;5038821;28;20213;-65
2023/03/02 02:07:46;;;;;;;8.48;7.68;;;;;;;;;;5039647;28;20644;-65
2023/03/02 02:10:14;;;;;;;9.25;8.35;;;;;;;;;;5021651;28;20213;-66
2023/03/02 02:12:41;;;;;;;8.90;8.10;;;;;;;;;;5019319;28;20210;-65
2023/03/02 02:15:09;;;;;;;8.80;8.10;;;;;;;;;;5037389;28;20642;-65
2023/03/02 02:17:37;;;;;;;8.30;7.60;;;;;;;;;;5019674;28;20234;-65
2023/03/02 02:20:08;;;;;;;8.57;7.78;;;;;;;;;;5026489;28;20648;-65
2023/03/02 02:22:47;;;;;;;9.30;8.50;;;;;;;;;;5026027;28;20237;-65
2023/03/02 02:25:20;;;;;;;8.82;8.13;;;;;;;;;;5019908;28;20226;-65
2023/03/02 02:27:49;;;;;;;8.80;8.00;;;;;;;;;;5018539;28;20224;-65
2023/03/02 02:30:19;;;;;;;8.70;7.90;;;;;;;;;;5028524;28;20292;-65
2023/03/02 02:32:48;;;;;;;8.60;7.80;;;;;;;;;;5036923;28;20202;-65
2023/03/02 02:35:17;;;;;;;8.38;7.68;;;;;;;;;;5032540;28;20264;-65
2023/03/02 02:37:46;;;;;;;8.85;8.05;;;;;;;;;;5031187;28;20229;-66
2023/03/02 02:40:16;;;;;;;8.50;7.80;;;;;;;;;;5021222;28;20202;-66
2023/03/02 02:42:45;;;;;;;8.57;7.78;;;;;;;;;;5018672;28;20313;-66
2023/03/02 02:45:20;;;;;;;8.98;8.15;;;;;;;;;;5026226;28;20212;-65
2023/03/02 02:47:48;;;;;;;8.43;7.72;;;;;;;;;;5024756;28;20213;-65
2023/03/02 02:50:18;;;;;;;9.10;8.20;;;;;;;;;;5017996;28;20202;-65
2023/03/02 02:52:46;;;;;;;8.85;8.07;;;;;;;;;;5035047;28;20194;-66
2023/03/02 02:55:15;;;;;;;9.10;8.30;;;;;;;;;;5029106;28;20212;-65
2023/03/02 02:57:43;;;;;;;8.18;7.47;;;;;;;;;;5018511;28;20532;-65
2023/03/02 03:00:16;;;;;;;8.45;7.75;;;;;;;;;;5026937;28;20212;-65
2023/03/02 03:02:46;;;;;;;8.25;7.55;;;;;;;;;;5033557;28;20316;-65
2023/03/02 03:05:15;;;;;;;8.88;8.07;;;;;;;;;;5026618;28;20208;-66
2023/03/02 03:07:42;;;;;;;8.57;7.78;;;;;;;;;;5037449;28;20283;-65
2023/03/02 03:10:13;;;;;;;8.98;8.13;;;;;;;;;;5020463;28;20260;-65
2023/03/02 03:12:41;;;;;;;7.82;7.22;;;;;;;;;;5032085;28;20197;-66
2023/03/02 03:15:10;;;;;;;9.15;8.25;;;;;;;;;;5028642;28;20202;-66
2023/03/02 03:17:37;;;;;;;8.60;7.80;;;;;;;;;;5025600;28;20300;-66
2023/03/02 03:20:08;;;;;;;9.30;8.40;;;;;;;;;;5037085;28;20212;-66
2023/03/02 03:22:36;;;;;;;8.45;7.75;;;;;;;;;;5017798;28;20579;-66
2023/03/02 03:25:03;;;;;;;9.10;8.25;;;;;;;;;;5017657;28;20248;-65
2023/03/02 03:27:31;;;;;;;7.93;7.22;;;;;;;;;;5028639;28;20209;-65
2023/03/02 03:30:00;;;;;;;8.95;8.15;;;;;;;;;;5030094;28;20202;-66
2023/03/02 03:32:28;;;;;;;9.02;8.13;;;;;;;;;;5017453;28;20213;-66
2023/03/02 03:34:56;;;;;;;8.60;7.80;;;;;;;;;;5024049;28;20233;-66
2023/03/02 03:37:25;;;;;;;8.38;7.63;;;;;;;;;;5026814;28;20650;-65
2023/03/02 03:39:53;;;;;;;9.70;8.70;;;;;;;;;;5026541;28;20505;-65
2023/03/02 03:42:21;;;;;;;8.60;7.75;;;;;;;;;;5035350;28;20258;-66
2023/03/02 03:44:48;;;;;;;8.82;7.93;;;;;;;;;;5020960;28;20210;-65
2023/03/02 03:47:15;;;;;;;8.90;8.10;;;;;;;;;;5018249;28;20234;-66
2023/03/02 03:49:43;;;;;;;8.93;8.02;;;;;;;;;;5033461;28;20581;-66
2023/03/02 03:52:10;;;;;;;8.48;7.78;;;;;;;;;;5020230;28;20510;-66
2023/03/02 03:54:39;;;;;;;8.05;7.35;;;;;;;;;;5032764;28;20225;-66
2023/03/02 03:57:07;;;;;;;8.55;7.85;;;;;;;;;;5017411;28;20587;-65
2023/03/02 03:59:34;;;;;;;8.27;7.50;;;;;;;;;;5020880;28;20232;-66
2023/03/02 04:02:02;;;;;;;8.13;7.43;;;;;;;;;;5036356;28;20285;-66
2023/03/02 04:04:31;;;;;;;8.52;7.82;;;;;;;;;;5033600;28;20214;-66
2023/03/02 04:06:59;;;;;;;9.00;8.10;;;;;;;;;;5022835;28;20198;-65
2023/03/02 04:09:26;;;;;;;8.77;7.97;;;;;;;;;;5034191;28;20574;-65
2023/03/02 04:11:56;;;;;;;9.07;8.27;;;;;;;;;;5019640;28;20203;-66
2023/03/02 04:14:24;;;;;;;8.85;8.05;;;;;;;;;;5035366;28;20202;-66
2023/03/02 04:16:52;;;;;;;8.98;8.18;;;;;;;;;;5022666;28;20321;-66
2023/03/02 04:19:19;;;;;;;8.73;7.93;;;;;;;;;;5029703;28;20297;-65
2023/03/02 04:21:48;;;;;;;8.80;8.05;;;;;;;;;;5019607;28;20213;-66
2023/03/02 04:24:16;;;;;;;8.63;7.82;;;;;;;;;;5034445;28;20221;-65
2023/03/02 04:26:44;;;;;;;8.30;7.60;;;;;;;;;;5008834;28;20321;-66
2023/03/02 04:29:13;;;;;;;8.82;8.02;;;;;;;;;;5032716;28;20505;-66
2023/03/02 04:31:40;;;;;;;8.80;8.00;;;;;;;;;;5016807;28;20208;-65
2023/03/02 04:34:09;;;;;;;9.30;8.40;;;;;;;;;;5035693;28;20589;-65
2023/03/02 04:36:38;;;;;;;9.25;8.45;;;;;;;;;;5020329;28;20292;-66
2023/03/02 04:39:06;;;;;;;9.13;8.23;;;;;;;;;;5034235;28;20374;-66
2023/03/02 04:41:34;;;;;;;8.48;7.78;;;;;;;;;;5024382;28;20297;-65
2023/03/02 04:44:02;;;;;;;8.43;7.63;;;;;;;;;;5016485;28;20236;-65
2023/03/02 04:46:33;;;;;;;8.63;7.93;;;;;;;;;;5018142;28;20238;-65
2023/03/02 04:49:00;;;;;;;8.80;8.00;;;;;;;;;;5022144;28;20293;-65
2023/03/02 04:51:28;;;;;;;9.15;8.35;;;;;;;;;;5032693;28;20202;-66
2023/03/02 04:53:57;;;;;;;8.77;7.97;;;;;;;;;;5040014;28;20241;-66
2023/03/02 04:56:24;;;;;;;8.80;8.00;;;;;;;;;;5021632;28;20198;-65
2023/03/02 04:58:52;;;;;;;9.40;8.50;;;;;;;;;;5032236;28;20280;-65
2023/03/02 05:01:20;;;;;;;9.30;8.50;;;;;;;;;;5023674;28;20293;-65
2023/03/02 05:03:49;;;;;;;8.55;7.75;;;;;;;;;;5019910;28;20230;-66
2023/03/02 05:06:17;;;;;;;8.45;7.75;;;;;;;;;;5037750;28;20713;-66
2023/03/02 05:08:45;;;;;;;8.35;7.55;;;;;;;;;;5037887;28;20252;-66
2023/03/02 05:11:21;;;;;;;8.70;7.90;;;;;;;;;;5038648;28;20292;-66
2023/03/02 05:13:48;;;;;;;8.60;7.80;;;;;;;;;;5023347;28;20285;-66
2023/03/02 05:16:16;;;;;;;9.93;9.02;;;;;;;;;;5036744;28;20284;-66
2023/03/02 05:18:43;;;;;;;9.43;8.52;;;;;;;;;;5019284;28;20293;-66
2023/03/02 05:21:13;;;;;;;8.82;8.02;;;;;;;;;;5035150;28;20582;-66
2023/03/02 05:23:40;;;;;;;8.98;8.18;;;;;;;;;;5039070;28;20262;-66
2023/03/02 05:26:08;;;;;;;8.95;8.15;;;;;;;;;;5020521;28;20320;-66
2023/03/02 05:28:35;;;;;;;8.95;8.15;;;;;;;;;;5038919;28;20303;-66
2023/03/02 05:31:03;;;;;;;8.80;8.00;;;;;;;;;;5035628;28;20210;-66
2023/03/02 05:33:30;;;;;;;8.95;8.15;;;;;;;;;;5018630;28;20202;-66
2023/03/02 05:35:58;;;;;;;9.32;8.43;;;;;;;;;;5034428;28;20794;-66
2023/03/02 05:38:30;;;;;;;8.80;8.00;;;;;;;;;;5031686;28;20233;-66
2023/03/02 05:40:57;;;;;;;8.77;7.97;;;;;;;;;;5022776;28;20268;-66
2023/03/02 05:43:25;;;;;;;9.00;8.20;;;;;;;;;;5026621;28;20218;-66
2023/03/02 05:45:54;;;;;;;8.93;8.13;;;;;;;;;;5032289;28;20602;-65
2023/03/02 05:48:21;;;;;;;9.07;8.20;;;;;;;;;;5037321;28;20201;-65
2023/03/02 05:50:48;;;;;;;9.00;8.20;;;;;;;;;;5029022;28;20495;-65
2023/03/02 05:53:16;;;;;;;9.35;8.45;;;;;;;;;;5024077;28;20264;-66
2023/03/02 05:55:45;;;;;;;9.63;8.73;;;;;;;;;;5017435;28;20203;-66
2023/03/02 05:58:14;;;;;;;8.80;8.00;;;;;;;;;;5018429;28;20242;-66
2023/03/02 06:00:42;;;;;;;9.10;8.20;;;;;;;;;;5037018;28;20202;-65
2023/03/02 06:03:09;;;;;;;9.57;8.68;;;;;;;;;;5032257;28;20241;-66
2023/03/02 06:05:37;;;;;;;8.90;8.10;;;;;;;;;;5031506;28;20213;-66
2023/03/02 06:08:05;;;;;;;9.10;8.23;;;;;;;;;;5019956;28;20587;-66
2023/03/02 06:10:32;;;;;;;9.45;8.55;;;;;;;;;;5025487;28;20198;-66
2023/03/02 06:13:01;;;;;;;9.50;8.60;;;;;;;;;;5035752;28;20284;-66
2023/03/02 06:15:29;;;;;;;8.88;8.07;;;;;;;;;;5035825;28;20284;-66
2023/03/02 06:17:56;;;;;;;9.25;8.45;;;;;;;;;;5036328;28;20494;-66
2023/03/02 06:20:23;;;;;;;9.73;8.85;;;;;;;;;;5036018;28;20206;-66
2023/03/02 06:22:51;;;;;;;9.23;8.35;;;;;;;;;;5035912;28;20652;-66
2023/03/02 06:25:20;;;;;;;9.65;8.75;;;;;;;;;;5035772;28;20320;-66
2023/03/02 06:27:49;;;;;;;9.32;8.45;;;;;;;;;;5035991;28;20718;-65
2023/03/02 06:30:21;;;;;;;9.20;8.35;;;;;;;;;;5034886;28;20301;-66
2023/03/02 06:32:48;;;;;;;9.65;8.73;;;;;;;;;;5029419;28;20556;-66
2023/03/02 06:35:16;;;;;;;9.18;8.30;;;;;;;;;;5030009;28;20298;-66
2023/03/02 06:37:43;;;;;;;9.20;8.40;;;;;;;;;;5032627;28;20208;-65
2023/03/02 06:40:12;;;;;;;8.75;7.95;;;;;;;;;;5015007;28;20257;-65
2023/03/02 06:42:40;;;;;;;9.48;8.57;;;;;;;;;;5015899;28;20217;-65
2023/03/02 06:45:08;;;;;;;9.40;8.50;;;;;;;;;;5023025;28;20232;-66
2023/03/02 06:47:37;;;;;;;9.05;8.25;;;;;;;;;;5033882;28;20194;-66
2023/03/02 06:50:06;;;;;;;9.10;8.20;;;;;;;;;;5033978;28;20292;-66
2023/03/02 06:52:36;;;;;;;8.90;8.10;;;;;;;;;;5024285;28;20256;-65
2023/03/02 06:55:03;;;;;;;8.93;8.13;;;;;;;;;;5015400;28;20205;-65
2023/03/02 06:57:32;;;;;;;8.40;7.60;;;;;;;;;;5015771;28;20281;-65
2023/03/02 07:00:00;;;;;;;8.73;7.90;;;;;;;;;;5016790;28;20237;-65
2023/03/02 07:02:28;;;;;;;8.70;7.90;;;;;;;;;;5015739;28;20213;-65
2023/03/02 07:04:57;;;;;;;8.40;7.60;;;;;;;;;;5014920;28;20626;-65
2023/03/02 07:07:24;;;;;;;8.57;7.82;;;;;;;;;;5015315;28;20286;-65
2023/03/02 07:09:52;;;;;;;8.50;7.80;;;;;;;;;;5015974;28;20203;-65
2023/03/02 07:12:19;;;;;;;8.32;7.53;;;;;;;;;;5016618;28;20194;-65
2023/03/02 07:14:46;;;;;;;8.07;7.38;;;;;;;;;;5015615;28;20281;-65
2023/03/02 07:17:14;;;;;;;8.57;7.47;;;;;;;;;;5016479;28;20593;-65
2023/03/02 07:19:41;;;;;;;8.77;7.97;;;;;;;;;;5033900;28;20300;-65
2023/03/02 07:22:10;;;;;;;9.15;8.35;;;;;;;;;;5032839;28;20233;-65
2023/03/02 07:24:38;;;;;;;8.77;7.90;;;;;;;;;;5014923;28;20316;-65
2023/03/02 07:27:05;;;;;;;9.20;8.20;;;;;;;;;;5020956;28;20707;-66
2023/03/02 07:29:32;;;;;;;9.30;8.35;;;;;;;;;;5032088;28;20289;-65
2023/03/02 07:32:00;;;;;;;9.43;8.52;;;;;;;;;;5015470;28;20301;-65
2023/03/02 07:34:28;;;;;;;10.75;8.95;;;;;;;;;;5018096;28;20524;-65
2023/03/02 07:36:56;;;;;;;10.73;8.15;;;;;;;;;;5029377;28;20513;-65
2023/03/02 07:39:25;;;;;;;8.85;7.90;;;;;;;;;;5023774;28;20221;-66
2023/03/02 07:41:52;;;;;;;8.65;7.82;;;;;;;;;;5034410;28;20248;-65
2023/03/02 07:44:20;;;;;;;8.88;8.07;;;;;;;;;;5018382;28;20312;-65
2023/03/02 07:46:47;;;;;;;11.57;8.60;;;;;;;;;;5034535;28;20300;-65
2023/03/02 07:49:15;;;;;;;8.93;8.02;;;;;;;;;;5032972;28;20201;-65
2023/03/02 07:51:42;;;;;;;9.43;8.52;;;;;;;;;;5017349;28;20206;-65
2023/03/02 07:54:10;;;;;;;9.10;8.20;;;;;;;;;;5023815;28;20312;-65
2023/03/02 07:56:38;;;;;;;8.85;7.97;;;;;;;;;;5022725;28;20305;-65
2023/03/02 07:59:06;;;;;;;9.38;8.52;;;;;;;;;;5015339;28;20663;-66
2023/03/02 08:01:33;;;;;;;9.75;8.73;;;;;;;;;;5034677;28;20316;-65
2023/03/02 08:04:00;;;;;;;9.90;8.90;;;;;;;;;;5034580;28;20232;-65
2023/03/02 08:06:28;;;;;;;9.40;8.50;;;;;;;;;;5034415;28;20201;-65
2023/03/02 08:08:56;;;;;;;9.50;8.52;;;;;;;;;;5030695;28;20300;-66
2023/03/02 08:11:23;;;;;;;9.60;8.60;;;;;;;;;;5025463;28;20209;-65
2023/03/02 08:13:52;;;;;;;10.68;9.25;;;;;;;;;;5041269;28;20219;-65
2023/03/02 08:16:20;;;;;;;10.13;9.13;;;;;;;;;;5036620;28;20827;-65
2023/03/02 08:18:48;;;;;;;12.65;11.35;;;;;;;;;;5035353;28;20236;-65
2023/03/02 08:21:17;;;;;;;53.72;42.38;;;;;;;;;;5034994;28;20578;-66
2023/03/02 08:23:44;;;;;;;75.75;57.25;;;;;;;;;;5034802;28;20256;-66
2023/03/02 08:26:12;;;;;;;54.08;40.75;;;;;;;;;;5038885;28;20226;-66
2023/03/02 08:28:39;;;;;;;44.40;35.35;;;;;;;;;;5038465;28;20201;-66
2023/03/02 08:31:10;;;;;;;44.97;36.15;;;;;;;;;;5038441;28;20305;-65
2023/03/02 08:33:39;;;;;;;45.20;35.35;;;;;;;;;;5038695;28;20539;-65
2023/03/02 08:36:08;;;;;;;43.30;34.60;;;;;;;;;;5038132;28;20212;-65
2023/03/02 08:38:36;;;;;;;41.35;32.55;;;;;;;;;;5031276;28;20198;-65
2023/03/02 08:41:05;;;;;;;43.20;33.80;;;;;;;;;;5019256;28;20293;-66
2023/03/02 08:43:33;;;;;;;36.20;30.63;;;;;;;;;;5017977;28;20207;-65
2023/03/02 08:46:00;;;;;;;37.22;30.63;;;;;;;;;;5019118;28;20213;-65
2023/03/02 08:48:29;;;;;;;35.50;29.67;;;;;;;;;;5034443;28;20200;-65
2023/03/02 08:50:57;;;;;;;34.50;29.33;;;;;;;;;;5038709;28;20235;-66
2023/03/02 08:53:25;;;;;;;36.60;29.35;;;;;;;;;;5038083;28;20210;-65
2023/03/02 08:55:52;;;;;;;34.90;27.75;;;;;;;;;;5037284;28;20206;-65
2023/03/02 08:58:20;;;;;;;35.83;27.95;;;;;;;;;;5037769;28;20622;-65
2023/03/02 09:00:47;;;;;;;32.85;27.50;;;;;;;;;;5037405;28;20292;-66
2023/03/02 09:03:15;;;;;;;33.42;27.55;;;;;;;;;;5038123;28;20578;-65
2023/03/02 09:05:44;;;;;;;34.20;27.63;;;;;;;;;;5036982;28;20313;-66
2023/03/02 09:08:11;;;;;;;30.55;25.95;;;;;;;;;;5037167;28;20813;-66
2023/03/02 09:10:39;;;;;;;31.13;25.83;;;;;;;;;;5037312;28;20204;-65
2023/03/02 09:13:07;;;;;;;31.00;25.20;;;;;;;;;;5035337;28;20206;-65
2023/03/02 09:15:35;;;;;;;30.23;24.58;;;;;;;;;;5036688;28;20210;-66
2023/03/02 09:18:02;;;;;;;30.92;24.48;;;;;;;;;;5026820;28;20217;-65
2023/03/02 09:20:30;;;;;;;27.20;24.23;;;;;;;;;;5018386;28;20226;-66
2023/03/02 09:22:58;;;;;;;26.73;23.50;;;;;;;;;;5018045;28;20245;-65
2023/03/02 09:25:26;;;;;;;26.95;22.63;;;;;;;;;;5022949;28;20225;-65
2023/03/02 09:27:53;;;;;;;27.20;23.85;;;;;;;;;;5017980;28;20301;-66
2023/03/02 09:30:21;;;;;;;24.67;21.95;;;;;;;;;;5017491;28;20231;-65
2023/03/02 09:32:48;;;;;;;26.05;21.77;;;;;;;;;;5017419;28;20485;-65
2023/03/02 09:35:16;;;;;;;25.10;22.23;;;;;;;;;;5016803;28;20206;-65
2023/03/02 09:37:43;;;;;;;24.88;21.55;;;;;;;;;;5030390;28;20202;-65
2023/03/02 09:40:17;;;;;;;23.85;20.88;;;;;;;;;;5034609;28;20280;-65
2023/03/02 09:42:58;;;;;;;23.90;20.38;;;;;;;;;;5030820;28;20274;-66
2023/03/02 09:45:30;;;;;;;24.42;20.85;;;;;;;;;;5017648;28;20598;-66
2023/03/02 09:48:04;;;;;;;23.45;19.73;;;;;;;;;;5017793;28;20297;-66
2023/03/02 09:50:33;;;;;;;21.45;19.13;;;;;;;;;;5017514;28;20210;-66
2023/03/02 09:53:16;;;;;;;21.35;19.10;;;;;;;;;;5025624;28;20237;-66
2023/03/02 09:55:46;;;;;;;22.02;19.67;;;;;;;;;;5032078;28;20558;-66
2023/03/02 09:58:15;;;;;;;21.58;18.98;;;;;;;;;;5032975;28;20204;-65
2023/03/02 10:00:44;;;;;;;21.90;19.60;;;;;;;;;;5016694;28;20289;-65
2023/03/02 10:03:17;;;;;;;20.17;18.08;;;;;;;;;;5016137;28;20245;-66
2023/03/02 10:05:46;;;;;;;19.92;17.38;;;;;;;;;;5016046;28;20226;-66
2023/03/02 10:08:13;;;;;;;20.95;18.58;;;;;;;;;;5017602;28;20228;-66
2023/03/02 10:10:43;;;;;;;20.35;17.90;;;;;;;;;;5033422;28;20201;-65
2023/03/02 10:13:19;;;;;;;18.52;16.63;;;;;;;;;;5036357;28;20216;-66
2023/03/02 10:15:52;;;;;;;18.65;16.65;;;;;;;;;;5036288;28;20661;-66
2023/03/02 10:18:21;;;;;;;18.58;16.63;;;;;;;;;;5036346;28;20197;-66
2023/03/02 10:20:52;;;;;;;17.80;15.90;;;;;;;;;;5036609;28;20215;-66
2023/03/02 10:23:38;;;;;;;17.77;15.93;;;;;;;;;;5036726;28;20206;-66
2023/03/02 10:26:10;;;;;;;18.33;15.95;;;;;;;;;;5035817;28;20251;-67
2023/03/02 10:28:42;;;;;;;18.23;16.30;;;;;;;;;;5016402;28;20297;-66
2023/03/02 10:31:10;;;;;;;17.92;16.02;;;;;;;;;;5016339;28;20583;-66
2023/03/02 10:33:39;;;;;;;17.55;15.68;;;;;;;;;;5015922;28;20301;-66
2023/03/02 10:36:13;;;;;;;17.77;15.98;;;;;;;;;;5015704;28;20606;-66
2023/03/02 10:38:41;;;;;;;16.58;14.75;;;;;;;;;;5015800;28;20272;-69
2023/03/02 10:41:15;;;;;;;16.60;14.80;;;;;;;;;;5015365;28;20669;-66
2023/03/02 10:43:46;;;;;;;16.30;14.60;;;;;;;;;;5014499;28;20230;-66
2023/03/02 10:46:14;;;;;;;15.40;13.80;;;;;;;;;;5014434;28;20219;-66
2023/03/02 10:48:48;;;;;;;16.25;14.55;;;;;;;;;;5014791;28;20308;-66
2023/03/02 10:51:22;;;;;;;16.63;14.48;;;;;;;;;;5033971;28;20237;-66
2023/03/02 10:53:49;;;;;;;14.88;13.27;;;;;;;;;;5035513;28;20308;-66
2023/03/02 10:56:20;;;;;;;15.20;13.70;;;;;;;;;;5024179;28;20516;-66
2023/03/02 10:58:49;;;;;;;14.95;13.35;;;;;;;;;;5021355;28;20198;-66
2023/03/02 11:01:18;;;;;;;14.65;13.15;;;;;;;;;;5014362;28;20217;-66
2023/03/02 11:03:55;;;;;;;14.55;13.05;;;;;;;;;;5014005;28;20289;-66
2023/03/02 11:06:22;;;;;;;14.75;13.23;;;;;;;;;;5033398;28;20248;-65
2023/03/02 11:08:58;;;;;;;14.25;12.82;;;;;;;;;;5034928;28;20316;-66
2023/03/02 11:11:26;;;;;;;14.13;12.70;;;;;;;;;;5015757;28;20655;-66
2023/03/02 11:13:56;;;;;;;13.35;12.05;;;;;;;;;;5015705;28;20198;-66
2023/03/02 11:16:25;;;;;;;13.75;12.35;;;;;;;;;;5016187;28;20308;-66
2023/03/02 11:18:55;;;;;;;13.45;12.13;;;;;;;;;;5032005;28;20237;-66
2023/03/02 11:21:24;;;;;;;12.80;11.52;;;;;;;;;;5033413;28;20205;-66
2023/03/02 11:23:56;;;;;;;13.80;12.40;;;;;;;;;;5033851;28;20212;-66
2023/03/02 11:26:25;;;;;;;12.77;11.48;;;;;;;;;;5014430;28;20242;-65
2023/03/02 11:28:57;;;;;;;13.25;11.88;;;;;;;;;;5014575;28;20686;-66
2023/03/02 11:31:27;;;;;;;12.32;11.13;;;;;;;;;;5022961;28;20324;-66
2023/03/02 11:34:00;;;;;;;12.63;11.32;;;;;;;;;;5033602;28;20198;-66
2023/03/02 11:36:31;;;;;;;12.40;11.10;;;;;;;;;;5032431;28;20593;-66
2023/03/02 11:38:59;;;;;;;11.98;10.77;;;;;;;;;;5032019;28;20198;-66
2023/03/02 11:41:29;;;;;;;12.93;11.63;;;;;;;;;;5022801;28;20297;-66
2023/03/02 11:44:00;;;;;;;11.43;10.32;;;;;;;;;;5014491;28;20260;-66
2023/03/02 11:46:29;;;;;;;12.07;10.88;;;;;;;;;;5029356;28;20237;-66
2023/03/02 11:48:58;;;;;;;11.68;10.57;;;;;;;;;;5015633;28;20203;-65
2023/03/02 11:51:27;;;;;;;11.90;10.70;;;;;;;;;;5015109;28;20627;-66
2023/03/02 11:53:58;;;;;;;11.02;10.02;;;;;;;;;;5013303;28;20300;-66
2023/03/02 11:56:26;;;;;;;11.02;10.02;;;;;;;;;;5014759;28;20646;-66
2023/03/02 11:58:56;;;;;;;11.20;10.05;;;;;;;;;;5018389;28;20292;-66
2023/03/02 12:01:25;;;;;;;10.13;9.13;;;;;;;;;;5024494;28;20228;-66
2023/03/02 12:03:53;;;;;;;11.07;9.98;;;;;;;;;;5018268;28;20199;-66
2023/03/02 12:06:28;;;;;;;11.15;10.05;;;;;;;;;;5037119;28;20228;-66
2023/03/02 12:09:10;;;;;;;10.68;9.68;;;;;;;;;;5037006;28;20344;-66
2023/03/02 12:11:39;;;;;;;10.52;9.52;;;;;;;;;;5033700;28;20593;-66
2023/03/02 12:14:25;;;;;;;10.02;9.13;;;;;;;;;;5038203;28;20198;-66
2023/03/02 12:17:04;;;;;;;9.40;8.52;;;;;;;;;;5037987;28;20197;-66
2023/03/02 12:19:40;;;;;;;9.98;9.05;;;;;;;;;;5037836;28;20205;-67
2023/03/02 12:22:11;;;;;;;9.95;9.05;;;;;;;;;;5037483;28;20216;-66
2023/03/02 12:24:40;;;;;;;10.13;9.23;;;;;;;;;;5037652;28;20220;-66
2023/03/02 12:27:08;;;;;;;9.80;8.90;;;;;;;;;;5037284;28;20352;-66
2023/03/02 12:29:40;;;;;;;9.55;8.63;;;;;;;;;;5037701;28;20205;-65
2023/03/02 12:32:14;;;;;;;9.60;8.70;;;;;;;;;;5037657;28;20216;-65
2023/03/02 12:34:43;;;;;;;9.40;8.50;;;;;;;;;;5036860;28;20288;-66
2023/03/02 12:37:16;;;;;;;9.65;8.75;;;;;;;;;;5038009;28;20308;-66
2023/03/02 12:40:00;;;;;;;9.68;8.77;;;;;;;;;;5036038;28;20212;-67
2023/03/02 12:42:35;;;;;;;9.30;8.40;;;;;;;;;;5018000;28;20204;-65
2023/03/02 12:45:04;;;;;;;9.02;8.18;;;;;;;;;;5025049;28;20227;-66
2023/03/02 12:47:34;;;;;;;9.23;8.43;;;;;;;;;;5025035;28;20216;-66
2023/03/02 12:50:02;;;;;;;8.55;7.80;;;;;;;;;;5017937;28;20203;-66
2023/03/02 12:52:31;;;;;;;9.02;8.23;;;;;;;;;;5017461;28;20190;-66
2023/03/02 12:55:03;;;;;;;8.27;7.53;;;;;;;;;;5017069;28;20709;-66
2023/03/02 12:57:31;;;;;;;8.13;7.32;;;;;;;;;;5024788;28;20675;-66
2023/03/02 13:00:00;;;;;;;8.45;7.65;;;;;;;;;;5036432;28;20304;-66
2023/03/02 13:02:29;;;;;;;8.07;7.32;;;;;;;;;;5036434;28;20281;-66
2023/03/02 13:04:59;;;;;;;7.72;7.03;;;;;;;;;;5026978;28;20296;-66
2023/03/02 13:07:28;;;;;;;8.50;7.70;;;;;;;;;;5035227;28;20203;-66
2023/03/02 13:09:56;;;;;;;8.30;7.50;;;;;;;;;;5034906;28;20229;-66
2023/03/02 13:12:24;;;;;;;8.13;7.43;;;;;;;;;;5036494;28;20304;-66
2023/03/02 13:14:53;;;;;;;8.38;7.63;;;;;;;;;;5026575;28;20194;-66
2023/03/02 13:17:22;;;;;;;7.78;7.07;;;;;;;;;;5017029;28;20305;-66
2023/03/02 13:19:50;;;;;;;8.30;7.50;;;;;;;;;;5022815;28;20198;-66
2023/03/02 13:22:21;;;;;;;8.18;7.38;;;;;;;;;;5036380;28;20664;-65
2023/03/02 13:24:51;;;;;;;7.82;7.10;;;;;;;;;;5035359;28;20292;-66
2023/03/02 13:27:19;;;;;;;7.90;7.20;;;;;;;;;;5030380;28;20285;-66
2023/03/02 13:29:47;;;;;;;8.40;7.60;;;;;;;;;;5016227;28;20306;-66
2023/03/02 13:32:18;;;;;;;7.82;7.13;;;;;;;;;;5015752;28;20242;-66
2023/03/02 13:34:48;;;;;;;7.72;7.03;;;;;;;;;;5025527;28;20202;-66
2023/03/02 13:37:42;;;;;;;7.72;7.03;;;;;;;;;;5021686;28;20289;-66
2023/03/02 13:40:24;;;;;;;7.55;6.85;;;;;;;;;;5021090;28;20212;-66
2023/03/02 13:42:54;;;;;;;7.93;7.15;;;;;;;;;;5016184;28;20209;-66
2023/03/02 13:45:25;;;;;;;7.72;7.03;;;;;;;;;;5016179;28;20222;-66
2023/03/02 13:47:53;;;;;;;7.63;6.93;;;;;;;;;;5030300;28;20770;-66
2023/03/02 13:50:21;;;;;;;7.20;6.50;;;;;;;;;;5031573;28;20205;-66
2023/03/02 13:52:49;;;;;;;7.28;6.60;;;;;;;;;;5036237;28;20206;-66
2023/03/02 13:55:18;;;;;;;7.50;6.80;;;;;;;;;;5035165;28;20209;-66
2023/03/02 13:57:46;;;;;;;7.45;6.75;;;;;;;;;;5027873;28;20300;-66
2023/03/02 14:00:19;;;;;;;7.35;6.75;;;;;;;;;;5034552;28;20202;-66
2023/03/02 14:02:47;;;;;;;7.80;7.10;;;;;;;;;;5027977;28;20241;-66
2023/03/02 14:05:18;;;;;;;7.38;6.78;;;;;;;;;;5022773;28;20198;-66
2023/03/02 14:07:46;;;;;;;7.45;6.75;;;;;;;;;;5025342;28;20202;-66
2023/03/02 14:10:14;;;;;;;7.03;6.43;;;;;;;;;;5026313;28;20753;-66
2023/03/02 14:12:45;;;;;;;6.72;6.13;;;;;;;;;;5030816;28;20202;-65
2023/03/02 14:15:14;;;;;;;7.20;6.60;;;;;;;;;;5033374;28;20204;-66
2023/03/02 14:17:43;;;;;;;7.50;6.80;;;;;;;;;;5035209;28;20304;-66
2023/03/02 14:20:14;;;;;;;7.20;6.60;;;;;;;;;;5035703;28;20206;-66
2023/03/02 14:22:43;;;;;;;7.10;6.47;;;;;;;;;;5035534;28;20216;-66
2023/03/02 14:25:11;;;;;;;6.93;6.30;;;;;;;;;;5034111;28;20328;-66
2023/03/02 14:27:38;;;;;;;6.93;6.32;;;;;;;;;;5034841;28;20202;-66
2023/03/02 14:30:08;;;;;;;7.15;6.45;;;;;;;;;;5035988;28;20210;-66
2023/03/02 14:32:36;;;;;;;7.10;6.50;;;;;;;;;;5035200;28;20300;-66
2023/03/02 14:35:05;;;;;;;6.53;5.93;;;;;;;;;;5034731;28;20206;-66
2023/03/02 14:37:32;;;;;;;6.80;6.20;;;;;;;;;;5033673;28;20201;-66
2023/03/02 14:40:00;;;;;;;6.82;6.22;;;;;;;;;;5026304;28;20241;-66
2023/03/02 14:42:28;;;;;;;6.90;6.30;;;;;;;;;;5015570;28;20245;-65
2023/03/02 14:44:55;;;;;;;6.68;6.07;;;;;;;;;;5015046;28;20297;-66
2023/03/02 14:47:23;;;;;;;6.18;5.68;;;;;;;;;;5014588;28;20229;-66